createdAt,value
2023-02-06T00:01:37.092Z,11.30
2023-02-06T00:04:04.457Z,11.70
2023-02-06T00:06:31.612Z,13.20
2023-02-06T00:08:58.838Z,11.70
2023-02-06T00:11:26.517Z,12.10
2023-02-06T00:13:53.640Z,13.10
2023-02-06T00:16:30.834Z,10.20
2023-02-06T00:18:59.290Z,12.80
2023-02-06T00:21:28.372Z,12.30
2023-02-06T00:23:58.469Z,9.70
2023-02-06T00:26:25.592Z,13.80
2023-02-06T00:28:52.941Z,11.80
2023-02-06T00:31:20.092Z,13.00
2023-02-06T00:33:47.305Z,12.70
2023-02-06T00:36:15.200Z,12.40
2023-02-06T00:38:42.356Z,9.00
2023-02-06T00:41:09.640Z,11.60
2023-02-06T00:43:37.098Z,13.10
2023-02-06T00:46:04.804Z,13.30
2023-02-06T00:48:31.906Z,10.00
2023-02-06T00:50:58.921Z,12.00
2023-02-06T00:53:25.956Z,14.60
2023-02-06T00:55:53.010Z,11.80
2023-02-06T00:58:22.319Z,13.50
2023-02-06T01:00:49.431Z,12.10
2023-02-06T01:03:17.090Z,11.60
2023-02-06T01:05:44.282Z,11.50
2023-02-06T01:08:11.496Z,12.10
2023-02-06T01:10:42.325Z,10.50
2023-02-06T01:13:10.395Z,14.40
2023-02-06T01:15:37.846Z,14.10
2023-02-06T01:18:05.151Z,14.90
2023-02-06T01:20:32.636Z,13.20
2023-02-06T01:22:59.726Z,13.10
2023-02-06T01:25:27.085Z,13.90
2023-02-06T01:27:54.195Z,10.90
2023-02-06T01:30:21.475Z,11.90
2023-02-06T01:32:49.764Z,11.30
2023-02-06T01:35:16.882Z,12.40
2023-02-06T01:37:43.957Z,10.60
2023-02-06T01:40:16.434Z,13.00
2023-02-06T01:42:43.929Z,14.50
2023-02-06T01:45:42.529Z,12.60
2023-02-06T01:48:16.578Z,11.50
2023-02-06T01:50:50.187Z,12.40
2023-02-06T01:53:18.419Z,12.00
2023-02-06T01:55:48.303Z,12.70
2023-02-06T01:58:25.523Z,12.00
2023-02-06T02:00:53.249Z,10.70
2023-02-06T02:03:20.665Z,12.40
2023-02-06T02:05:51.117Z,10.60
2023-02-06T02:08:25.094Z,12.50
2023-02-06T02:10:52.295Z,11.80
2023-02-06T02:13:19.333Z,11.40
2023-02-06T02:15:53.157Z,9.10
2023-02-06T02:18:36.816Z,9.70
2023-02-06T02:21:31.332Z,12.10
2023-02-06T02:24:36.582Z,9.80
2023-02-06T02:27:33.609Z,12.10
2023-02-06T02:30:40.756Z,10.30
2023-02-06T02:33:29.268Z,8.30
2023-02-06T02:36:08.243Z,9.40
2023-02-06T02:38:37.265Z,10.20
2023-02-06T02:41:18.880Z,7.40
2023-02-06T02:44:07.379Z,11.50
2023-02-06T02:46:52.380Z,9.50
2023-02-06T02:49:26.042Z,9.70
2023-02-06T02:51:54.039Z,10.20
2023-02-06T02:54:21.194Z,11.00
2023-02-06T02:56:48.349Z,10.40
2023-02-06T02:59:23.621Z,9.30
2023-02-06T03:01:53.610Z,9.00
2023-02-06T03:04:31.424Z,13.10
2023-02-06T03:07:04.607Z,9.40
2023-02-06T03:09:45.880Z,8.70
2023-02-06T03:12:41.111Z,9.60
2023-02-06T03:15:45.479Z,10.60
2023-02-06T03:18:23.557Z,8.00
2023-02-06T03:20:51.793Z,8.70
2023-02-06T03:23:26.558Z,7.60
2023-02-06T03:25:59.352Z,9.90
2023-02-06T03:28:35.598Z,8.10
2023-02-06T03:31:09.280Z,8.40
2023-02-06T03:33:46.450Z,8.90
2023-02-06T03:36:16.633Z,10.50
2023-02-06T03:38:50.259Z,9.60
2023-02-06T03:41:20.929Z,10.10
2023-02-06T03:43:50.240Z,11.20
2023-02-06T03:46:18.317Z,12.10
2023-02-06T03:48:53.561Z,13.10
2023-02-06T03:51:38.576Z,11.80
2023-02-06T03:54:07.179Z,10.10
2023-02-06T03:56:49.943Z,11.20
2023-02-06T03:59:17.072Z,13.50
2023-02-06T04:01:49.828Z,9.90
2023-02-06T04:04:19.609Z,11.00
2023-02-06T04:06:46.860Z,11.50
2023-02-06T04:09:13.943Z,8.20
2023-02-06T04:11:41.068Z,11.70
2023-02-06T04:14:08.152Z,9.60
2023-02-06T04:16:35.308Z,9.10
2023-02-06T04:19:02.335Z,11.00
2023-02-06T04:21:29.495Z,8.30
2023-02-06T04:23:56.509Z,9.00
2023-02-06T04:26:23.493Z,8.60
2023-02-06T04:28:50.537Z,9.70
2023-02-06T04:31:17.649Z,8.30
2023-02-06T04:33:44.764Z,10.10
2023-02-06T04:36:12.138Z,10.60
2023-02-06T04:38:39.176Z,9.40
2023-02-06T04:41:07.355Z,10.20
2023-02-06T04:43:34.451Z,8.20
2023-02-06T04:46:01.569Z,8.90
2023-02-06T04:48:28.663Z,9.70
2023-02-06T04:50:55.693Z,10.90
2023-02-06T04:53:22.758Z,8.60
2023-02-06T04:55:50.087Z,9.40
2023-02-06T04:58:17.195Z,10.40
2023-02-06T05:00:44.252Z,8.70
2023-02-06T05:03:11.308Z,10.90
2023-02-06T05:05:38.352Z,11.70
2023-02-06T05:08:05.546Z,13.80
2023-02-06T05:10:32.652Z,11.00
2023-02-06T05:12:59.711Z,12.70
2023-02-06T05:15:26.886Z,8.40
2023-02-06T05:17:54.044Z,12.20
2023-02-06T05:20:21.150Z,10.80
2023-02-06T05:22:48.173Z,10.80
2023-02-06T05:25:15.434Z,11.40
2023-02-06T05:27:42.456Z,12.00
2023-02-06T05:30:10.733Z,10.20
2023-02-06T05:32:37.880Z,11.80
2023-02-06T05:35:05.652Z,12.40
2023-02-06T05:37:32.871Z,13.80
2023-02-06T05:40:00.258Z,12.30
2023-02-06T05:42:27.337Z,13.80
2023-02-06T05:44:54.416Z,15.10
2023-02-06T05:47:21.492Z,12.00
2023-02-06T05:49:48.792Z,12.20
2023-02-06T05:52:16.090Z,11.70
2023-02-06T05:54:44.474Z,10.70
2023-02-06T05:57:12.177Z,10.50
2023-02-06T05:59:39.242Z,9.80
2023-02-06T06:02:06.398Z,11.00
2023-02-06T06:04:33.483Z,12.80
2023-02-06T06:07:00.654Z,9.90
2023-02-06T06:09:27.798Z,9.90
2023-02-06T06:11:54.937Z,9.10
2023-02-06T06:14:21.975Z,13.90
2023-02-06T06:16:49.041Z,12.60
2023-02-06T06:19:16.133Z,12.50
2023-02-06T06:21:43.208Z,11.50
2023-02-06T06:24:10.218Z,11.80
2023-02-06T06:26:37.354Z,10.20
2023-02-06T06:29:04.794Z,12.40
2023-02-06T06:31:32.020Z,10.70
2023-02-06T06:33:59.190Z,9.50
2023-02-06T06:36:26.482Z,11.60
2023-02-06T06:38:53.557Z,10.30
2023-02-06T06:41:20.606Z,9.90
2023-02-06T06:43:48.333Z,11.30
2023-02-06T06:46:16.602Z,9.00
2023-02-06T06:48:43.658Z,11.20
2023-02-06T06:51:10.710Z,11.20
2023-02-06T06:53:39.319Z,13.20
2023-02-06T06:56:09.742Z,12.10
2023-02-06T06:58:36.792Z,13.10
2023-02-06T07:01:04.523Z,13.60
2023-02-06T07:03:31.705Z,11.60
2023-02-06T07:05:58.801Z,14.60
2023-02-06T07:08:29.324Z,12.00
2023-02-06T07:10:57.341Z,13.00
2023-02-06T07:13:24.455Z,12.80
2023-02-06T07:15:51.577Z,14.30
2023-02-06T07:18:18.706Z,13.60
2023-02-06T07:20:45.754Z,12.40
2023-02-06T07:23:12.864Z,10.60
2023-02-06T07:25:39.969Z,11.00
2023-02-06T07:28:07.532Z,11.10
2023-02-06T07:30:34.711Z,11.60
2023-02-06T07:33:04.747Z,10.30
2023-02-06T07:35:32.018Z,12.60
2023-02-06T07:37:59.287Z,12.00
2023-02-06T07:40:29.314Z,15.00
2023-02-06T07:43:00.682Z,8.80
2023-02-06T07:45:33.658Z,12.30
2023-02-06T07:48:04.440Z,14.50
2023-02-06T07:50:32.241Z,13.10
2023-02-06T07:52:59.402Z,12.70
2023-02-06T07:55:26.894Z,11.40
2023-02-06T07:57:54.773Z,10.20
2023-02-06T08:00:21.945Z,11.10
2023-02-06T08:02:49.014Z,13.10
2023-02-06T08:05:16.176Z,11.20
2023-02-06T08:07:43.200Z,11.40
2023-02-06T08:10:10.350Z,13.10
2023-02-06T08:12:37.519Z,11.60
2023-02-06T08:15:04.972Z,13.40
2023-02-06T08:17:31.969Z,14.00
2023-02-06T08:19:59.688Z,11.80
2023-02-06T08:22:29.432Z,12.20
2023-02-06T08:24:56.546Z,11.90
2023-02-06T08:27:23.631Z,11.00
2023-02-06T08:29:51.240Z,12.20
2023-02-06T08:32:18.481Z,10.40
2023-02-06T08:34:45.637Z,11.80
2023-02-06T08:37:12.803Z,11.60
2023-02-06T08:39:40.017Z,12.60
2023-02-06T08:42:07.180Z,14.40
2023-02-06T08:44:34.420Z,12.10
2023-02-06T08:47:09.551Z,13.30
2023-02-06T08:49:37.904Z,14.00
2023-02-06T08:52:05.375Z,13.30
2023-02-06T08:54:35.212Z,12.20
2023-02-06T08:57:03.334Z,12.00
2023-02-06T08:59:30.584Z,10.60
2023-02-06T09:01:57.768Z,11.20
2023-02-06T09:04:25.117Z,10.20
2023-02-06T09:06:52.372Z,12.50
2023-02-06T09:09:19.410Z,10.50
2023-02-06T09:11:47.040Z,11.40
2023-02-06T09:14:17.384Z,11.50
2023-02-06T09:16:44.724Z,9.70
2023-02-06T09:19:12.825Z,10.70
2023-02-06T09:21:39.958Z,12.20
2023-02-06T09:24:08.835Z,10.70
2023-02-06T09:26:58.061Z,12.50
2023-02-06T09:29:29.153Z,10.30
2023-02-06T09:31:56.913Z,10.50
2023-02-06T09:34:25.296Z,8.80
2023-02-06T09:36:57.142Z,10.10
2023-02-06T09:39:25.212Z,10.10
2023-02-06T09:42:29.903Z,12.50
2023-02-06T09:45:19.686Z,11.60
2023-02-06T09:47:53.633Z,10.30
2023-02-06T09:50:43.394Z,10.10
2023-02-06T09:53:31.851Z,9.20
2023-02-06T09:56:07.836Z,10.60
2023-02-06T09:58:53.288Z,10.40
2023-02-06T10:02:19.236Z,11.80
2023-02-06T10:04:59.272Z,9.10
2023-02-06T10:07:38.798Z,10.70
2023-02-06T10:10:35.872Z,10.30
2023-02-06T10:13:23.999Z,9.30
2023-02-06T10:15:57.317Z,11.00
2023-02-06T10:18:38.828Z,9.80
2023-02-06T10:21:22.246Z,8.80
2023-02-06T10:24:23.719Z,9.30
2023-02-06T10:26:53.052Z,7.80
2023-02-06T10:29:47.849Z,10.80
2023-02-06T10:35:29.305Z,10.00
2023-02-06T10:38:21.470Z,9.60
2023-02-06T10:41:30.018Z,8.10
2023-02-06T10:44:20.721Z,12.40
2023-02-06T10:46:50.823Z,14.30
2023-02-06T10:49:32.559Z,11.00
2023-02-06T10:52:27.073Z,12.70
2023-02-06T10:55:12.387Z,10.60
2023-02-06T10:57:42.394Z,9.90
2023-02-06T11:00:24.452Z,7.00
2023-02-06T11:03:07.685Z,11.00
2023-02-06T11:05:36.370Z,12.70
2023-02-06T11:08:21.817Z,10.80
2023-02-06T11:10:49.254Z,13.00
2023-02-06T11:13:35.186Z,12.40
2023-02-06T11:16:16.174Z,11.80
2023-02-06T11:18:45.541Z,11.30
2023-02-06T11:21:34.266Z,11.80
2023-02-06T11:24:13.550Z,12.70
2023-02-06T11:26:54.727Z,13.00
2023-02-06T11:29:35.311Z,12.10
2023-02-06T11:32:08.299Z,9.70
2023-02-06T11:34:57.069Z,9.30
2023-02-06T11:37:38.755Z,10.60
2023-02-06T11:40:17.701Z,10.00
2023-02-06T11:42:54.078Z,11.10
2023-02-06T11:45:31.413Z,9.70
2023-02-06T11:47:59.489Z,12.80
2023-02-06T11:50:28.018Z,11.60
2023-02-06T11:53:11.357Z,9.30
2023-02-06T11:55:39.617Z,11.10
2023-02-06T11:58:12.867Z,10.60
2023-02-06T12:00:51.632Z,10.60
2023-02-06T12:03:35.710Z,10.80
2023-02-06T12:06:38.065Z,11.20
2023-02-06T12:09:11.683Z,11.20
2023-02-06T12:12:01.480Z,11.50
2023-02-06T12:14:53.245Z,9.60
2023-02-06T12:17:27.811Z,10.20
2023-02-06T12:20:29.193Z,11.70
2023-02-06T12:23:41.182Z,10.90
2023-02-06T12:26:17.838Z,8.50
2023-02-06T12:28:58.397Z,13.40
2023-02-06T12:32:18.358Z,11.00
2023-02-06T12:34:55.638Z,13.40
2023-02-06T12:37:46.257Z,14.50
2023-02-06T12:40:40.635Z,11.60
2023-02-06T12:43:14.948Z,11.60
2023-02-06T12:45:46.127Z,9.80
2023-02-06T12:48:20.761Z,10.40
2023-02-06T12:51:21.791Z,8.30
2023-02-06T12:53:56.795Z,9.30
2023-02-06T12:56:49.686Z,9.50
2023-02-06T12:59:38.528Z,7.10
2023-02-06T13:03:01.500Z,6.60
2023-02-06T13:05:42.589Z,9.30
2023-02-06T13:08:16.008Z,8.60
2023-02-06T13:10:43.828Z,8.40
2023-02-06T13:13:28.697Z,7.90
2023-02-06T13:15:59.816Z,8.30
2023-02-06T13:18:50.028Z,7.70
2023-02-06T13:21:20.398Z,9.60
2023-02-06T13:24:02.437Z,9.50
2023-02-06T13:26:56.589Z,14.00
2023-02-06T13:29:28.987Z,11.30
2023-02-06T13:32:11.450Z,10.30
2023-02-06T13:34:43.626Z,15.20
2023-02-06T13:37:39.132Z,14.30
2023-02-06T13:40:25.072Z,12.90
2023-02-06T13:43:07.046Z,14.30
2023-02-06T13:45:51.944Z,14.10
2023-02-06T13:49:40.298Z,12.10
2023-02-06T13:52:10.214Z,14.80
2023-02-06T13:55:02.266Z,11.10
2023-02-06T13:58:02.565Z,9.60
2023-02-06T14:00:32.194Z,10.60
2023-02-06T14:03:06.955Z,10.40
2023-02-06T14:05:53.243Z,11.70
2023-02-06T14:08:53.978Z,12.40
2023-02-06T14:12:24.133Z,12.00
2023-02-06T14:15:42.196Z,15.50
2023-02-06T14:18:48.580Z,13.90
2023-02-06T14:22:23.318Z,12.50
2023-02-06T14:25:10.822Z,12.00
2023-02-06T14:28:08.843Z,13.70
2023-02-06T14:30:50.046Z,14.00
2023-02-06T14:33:40.625Z,12.40
2023-02-06T14:36:31.852Z,13.00
2023-02-06T14:39:34.873Z,13.90
2023-02-06T14:42:36.967Z,12.10
2023-02-06T14:45:41.698Z,11.70
2023-02-06T14:48:28.380Z,10.80
2023-02-06T14:50:57.671Z,11.10
2023-02-06T14:53:37.401Z,10.10
2023-02-06T14:56:35.888Z,13.40
2023-02-06T14:59:17.399Z,16.90
2023-02-06T15:01:49.516Z,16.30
2023-02-06T15:04:25.499Z,16.20
2023-02-06T15:07:01.404Z,12.40
2023-02-06T15:09:38.327Z,10.40
2023-02-06T15:12:23.282Z,14.20
2023-02-06T15:14:57.447Z,13.50
2023-02-06T15:19:55.675Z,13.00
2023-02-06T15:22:29.744Z,12.80
2023-02-06T15:25:27.896Z,10.10
2023-02-06T15:28:09.571Z,10.40
2023-02-06T15:30:37.284Z,14.70
2023-02-06T15:33:11.029Z,12.90
2023-02-06T15:35:47.934Z,16.20
2023-02-06T15:38:16.069Z,16.30
2023-02-06T15:40:51.862Z,13.10
2023-02-06T15:43:25.310Z,15.80
2023-02-06T15:46:00.326Z,14.40
2023-02-06T15:48:48.589Z,16.80
2023-02-06T15:51:48.277Z,15.30
2023-02-06T15:54:15.273Z,13.70
2023-02-06T15:56:47.428Z,14.20
2023-02-06T15:59:26.043Z,11.60
2023-02-06T16:01:56.571Z,11.20
2023-02-06T16:04:34.570Z,14.60
2023-02-06T16:07:21.815Z,14.30
2023-02-06T16:09:52.987Z,12.60
2023-02-06T16:12:21.401Z,10.50
2023-02-06T16:14:59.143Z,11.20
2023-02-06T16:17:34.229Z,13.50
2023-02-06T16:20:26.351Z,14.30
2023-02-06T16:22:56.656Z,12.80
2023-02-06T16:25:31.266Z,13.30
2023-02-06T16:27:59.669Z,13.50
2023-02-06T16:30:34.417Z,14.00
2023-02-06T16:33:32.333Z,13.90
2023-02-06T16:35:59.717Z,14.30
2023-02-06T16:38:26.812Z,13.40
2023-02-06T16:40:54.024Z,17.40
2023-02-06T16:43:21.475Z,12.70
2023-02-06T16:45:49.336Z,12.90
2023-02-06T16:48:17.242Z,14.70
2023-02-06T16:50:46.812Z,17.30
2023-02-06T16:53:22.021Z,15.90
2023-02-06T16:55:49.862Z,14.40
2023-02-06T16:58:23.851Z,14.30
2023-02-06T17:00:51.155Z,12.90
2023-02-06T17:03:18.278Z,14.00
2023-02-06T17:05:47.914Z,16.70
2023-02-06T17:08:22.830Z,14.10
2023-02-06T17:10:50.567Z,11.70
2023-02-06T17:13:21.614Z,12.10
2023-02-06T17:15:51.693Z,12.90
2023-02-06T17:18:20.835Z,13.60
2023-02-06T17:20:52.243Z,15.60
2023-02-06T17:23:20.074Z,14.60
2023-02-06T17:25:47.406Z,16.20
2023-02-06T17:28:18.796Z,13.90
2023-02-06T17:30:48.222Z,13.60
2023-02-06T17:33:15.336Z,14.30
2023-02-06T17:35:42.631Z,14.60
2023-02-06T17:38:09.994Z,14.00
2023-02-06T17:40:39.481Z,13.00
2023-02-06T17:43:06.861Z,14.20
2023-02-06T17:45:37.720Z,15.10
2023-02-06T17:48:05.738Z,15.50
2023-02-06T17:50:33.826Z,15.30
2023-02-06T17:53:02.296Z,13.70
2023-02-06T17:55:29.379Z,14.50
2023-02-06T17:57:56.415Z,13.40
2023-02-06T18:00:24.603Z,15.50
2023-02-06T18:02:54.382Z,15.30
2023-02-06T18:05:22.827Z,17.60
2023-02-06T18:07:51.305Z,14.10
2023-02-06T18:10:20.748Z,15.60
2023-02-06T18:12:48.405Z,17.20
2023-02-06T18:15:16.595Z,16.20
2023-02-06T18:17:43.641Z,15.50
2023-02-06T18:20:12.257Z,14.00
2023-02-06T18:22:41.966Z,13.80
2023-02-06T18:25:12.601Z,15.40
2023-02-06T18:27:42.217Z,13.10
2023-02-06T18:30:10.326Z,15.60
2023-02-06T18:32:38.305Z,13.80
2023-02-06T18:35:07.837Z,13.70
2023-02-06T18:37:35.174Z,15.30
2023-02-06T18:40:02.567Z,14.30
2023-02-06T18:42:47.926Z,18.50
2023-02-06T18:45:14.943Z,14.80
2023-02-06T18:47:41.951Z,13.20
2023-02-06T18:50:11.381Z,13.10
2023-02-06T18:52:39.005Z,13.80
2023-02-06T18:55:08.082Z,11.70
2023-02-06T18:57:36.099Z,12.20
2023-02-06T19:00:06.865Z,13.60
2023-02-06T19:02:43.584Z,13.20
2023-02-06T19:05:12.540Z,10.50
2023-02-06T19:07:41.978Z,12.50
2023-02-06T19:10:13.134Z,13.90
2023-02-06T19:12:42.217Z,10.30
2023-02-06T19:15:12.854Z,10.20
2023-02-06T19:17:42.107Z,9.10
2023-02-06T19:20:12.083Z,10.10
2023-02-06T19:22:40.533Z,10.40
2023-02-06T19:25:14.023Z,9.10
2023-02-06T19:27:42.832Z,10.70
2023-02-06T19:30:13.245Z,10.10
2023-02-06T19:32:42.219Z,9.30
2023-02-06T19:35:12.550Z,10.30
2023-02-06T19:37:41.032Z,11.20
2023-02-06T19:40:10.204Z,9.30
2023-02-06T19:42:39.646Z,9.10
2023-02-06T19:45:08.386Z,9.90
2023-02-06T19:47:36.872Z,12.20
2023-02-06T19:50:06.117Z,11.00
2023-02-06T19:52:35.502Z,10.00
2023-02-06T19:55:04.415Z,10.00
2023-02-06T19:57:33.008Z,10.00
2023-02-06T20:00:01.751Z,11.60
2023-02-06T20:02:46.916Z,10.80
2023-02-06T20:05:15.597Z,10.50
2023-02-06T20:07:44.024Z,10.00
2023-02-06T20:10:12.519Z,10.30
2023-02-06T20:12:40.941Z,8.60
2023-02-06T20:15:10.074Z,10.10
2023-02-06T20:17:38.549Z,9.30
2023-02-06T20:20:08.068Z,9.80
2023-02-06T20:22:36.788Z,10.20
2023-02-06T20:25:05.912Z,10.50
2023-02-06T20:27:34.522Z,9.60
2023-02-06T20:30:03.207Z,9.30
2023-02-06T20:32:31.927Z,10.20
2023-02-06T20:35:00.916Z,12.00
2023-02-06T20:37:29.799Z,9.80
2023-02-06T20:39:59.762Z,9.40
2023-02-06T20:42:28.965Z,10.40
2023-02-06T20:44:58.282Z,7.10
2023-02-06T20:47:27.314Z,11.20
2023-02-06T20:49:55.824Z,10.50
2023-02-06T20:52:24.297Z,10.20
2023-02-06T20:54:52.828Z,11.60
2023-02-06T20:57:22.573Z,11.00
2023-02-06T20:59:51.031Z,10.10
2023-02-06T21:02:19.641Z,10.00
2023-02-06T21:04:49.175Z,10.30
2023-02-06T21:07:21.036Z,12.70
2023-02-06T21:09:49.574Z,5.80
2023-02-06T21:12:18.034Z,7.30
2023-02-06T21:14:47.136Z,10.60
2023-02-06T21:17:15.576Z,8.60
2023-02-06T21:19:44.063Z,10.20
2023-02-06T21:22:12.518Z,10.30
2023-02-06T21:24:40.927Z,6.50
2023-02-06T21:27:10.792Z,9.70
2023-02-06T21:29:39.247Z,10.20
2023-02-06T21:32:14.092Z,10.10
2023-02-06T21:34:43.691Z,11.30
2023-02-06T21:37:13.032Z,9.50
2023-02-06T21:39:42.192Z,8.50
2023-02-06T21:42:11.572Z,11.30
2023-02-06T21:44:40.049Z,9.40
2023-02-06T21:47:10.181Z,11.20
2023-02-06T21:49:38.760Z,10.50
2023-02-06T21:52:07.774Z,12.80
2023-02-06T21:54:36.284Z,8.80
2023-02-06T21:57:04.976Z,12.50
2023-02-06T21:59:34.299Z,11.20
2023-02-06T22:02:02.799Z,11.00
2023-02-06T22:04:31.384Z,9.70
2023-02-06T22:06:59.868Z,10.50
2023-02-06T22:09:28.635Z,10.00
2023-02-06T22:11:58.987Z,9.90
2023-02-06T22:14:27.502Z,10.90
2023-02-06T22:16:55.956Z,11.70
2023-02-06T22:19:24.507Z,10.30
2023-02-06T22:21:53.045Z,11.30
2023-02-06T22:24:21.560Z,9.70
2023-02-06T22:26:50.031Z,10.30
2023-02-06T22:29:18.896Z,10.60
2023-02-06T22:31:48.651Z,12.30
2023-02-06T22:34:20.504Z,9.40
2023-02-06T22:36:51.409Z,10.80
2023-02-06T22:39:20.175Z,9.20
2023-02-06T22:41:49.569Z,10.60
2023-02-06T22:44:20.608Z,11.40
2023-02-06T22:46:52.429Z,11.60
2023-02-06T22:49:22.134Z,12.80
2023-02-06T22:51:50.928Z,7.60
2023-02-06T22:54:20.122Z,9.80
2023-02-06T22:56:48.528Z,12.60
2023-02-06T22:59:22.321Z,12.70
2023-02-06T23:01:54.893Z,12.60
2023-02-06T23:04:30.540Z,12.60
2023-02-06T23:06:59.105Z,12.80
2023-02-06T23:09:33.958Z,11.70
2023-02-06T23:12:03.018Z,9.30
2023-02-06T23:14:33.778Z,11.20
2023-02-06T23:17:03.420Z,12.20
2023-02-06T23:19:31.934Z,15.10
2023-02-06T23:22:00.315Z,12.50
2023-02-06T23:24:28.768Z,17.10
2023-02-06T23:26:57.326Z,11.60
2023-02-06T23:29:26.075Z,12.70
2023-02-06T23:31:55.784Z,10.80
2023-02-06T23:34:24.713Z,11.50
2023-02-06T23:36:53.435Z,12.90
2023-02-06T23:39:22.302Z,13.10
2023-02-06T23:41:50.818Z,11.90
2023-02-06T23:44:19.685Z,12.60
2023-02-06T23:46:48.114Z,13.20
2023-02-06T23:49:16.662Z,14.30
2023-02-06T23:51:45.166Z,12.00
2023-02-06T23:54:13.668Z,9.10
2023-02-06T23:56:42.566Z,15.10
2023-02-06T23:59:12.082Z,14.70
